createdAt,value
2018-02-23T00:02:02.477Z,0.40
2018-02-23T00:04:30.103Z,0.40
2018-02-23T00:06:57.995Z,0.30
2018-02-23T00:09:25.602Z,0.30
2018-02-23T00:11:53.233Z,0.30
2018-02-23T00:14:20.826Z,0.30
2018-02-23T00:16:49.186Z,0.30
2018-02-23T00:19:16.780Z,0.30
2018-02-23T00:21:44.354Z,0.30
2018-02-23T00:24:11.939Z,0.20
2018-02-23T00:26:39.523Z,0.20
2018-02-23T00:29:07.256Z,0.20
2018-02-23T00:31:34.830Z,0.20
2018-02-23T00:34:02.422Z,0.10
2018-02-23T00:36:30.036Z,0.10
2018-02-23T00:38:57.629Z,0.10
2018-02-23T00:41:25.189Z,0.00
2018-02-23T00:43:53.178Z,0.00
2018-02-23T00:46:20.782Z,0.00
2018-02-23T00:48:48.343Z,0.00
2018-02-23T00:51:16.123Z,-0.10
2018-02-23T00:53:43.710Z,-0.10
2018-02-23T00:56:11.410Z,-0.10
2018-02-23T00:58:39.116Z,-0.20
2018-02-23T01:01:06.695Z,-0.20
2018-02-23T01:03:34.262Z,-0.30
2018-02-23T01:06:01.923Z,-0.30
2018-02-23T01:08:29.518Z,-0.30
2018-02-23T01:10:57.871Z,-0.30
2018-02-23T01:13:25.483Z,-0.40
2018-02-23T01:15:53.063Z,0.10
2018-02-23T01:18:20.623Z,-0.30
2018-02-23T01:20:48.222Z,-0.30
2018-02-23T01:23:15.798Z,-0.30
2018-02-23T01:25:43.398Z,-0.30
2018-02-23T01:28:11.023Z,-0.30
2018-02-23T01:30:38.600Z,-0.40
2018-02-23T01:33:06.202Z,-0.40
2018-02-23T01:35:33.767Z,-0.40
2018-02-23T01:38:01.404Z,-0.40
2018-02-23T01:40:29.756Z,-0.40
2018-02-23T01:42:57.327Z,-0.40
2018-02-23T01:45:24.940Z,-0.40
2018-02-23T01:47:52.542Z,-0.40
2018-02-23T01:50:20.111Z,-0.40
2018-02-23T01:52:47.723Z,-0.40
2018-02-23T01:55:16.087Z,-0.50
2018-02-23T01:57:43.700Z,-0.50
2018-02-23T02:00:11.345Z,-0.50
2018-02-23T02:02:38.974Z,-0.60
2018-02-23T02:05:06.558Z,-0.60
2018-02-23T02:07:34.140Z,-0.60
2018-02-23T02:10:01.729Z,-0.60
2018-02-23T02:12:29.292Z,-0.70
2018-02-23T02:14:56.881Z,-0.60
2018-02-23T02:17:24.457Z,-0.60
2018-02-23T02:19:52.082Z,-0.60
2018-02-23T02:22:19.678Z,-0.60
2018-02-23T02:24:48.082Z,-0.60
2018-02-23T02:27:15.717Z,-0.60
2018-02-23T02:29:43.314Z,-0.60
2018-02-23T02:32:10.919Z,-0.60
2018-02-23T02:34:38.663Z,-0.60
2018-02-23T02:37:06.250Z,-0.60
2018-02-23T02:39:33.855Z,-0.60
2018-02-23T02:42:01.471Z,-0.60
2018-02-23T02:44:29.112Z,-0.60
2018-02-23T02:46:56.702Z,-0.60
2018-02-23T02:49:24.265Z,-0.70
2018-02-23T02:51:51.865Z,-0.70
2018-02-23T02:54:20.222Z,-0.70
2018-02-23T02:56:47.807Z,-0.70
2018-02-23T02:59:16.190Z,-0.70
2018-02-23T03:01:43.756Z,-0.80
2018-02-23T03:04:12.109Z,-0.80
2018-02-23T03:06:39.707Z,-0.90
2018-02-23T03:09:07.275Z,-0.90
2018-02-23T03:11:34.882Z,-0.90
2018-02-23T03:14:02.456Z,-0.90
2018-02-23T03:16:30.038Z,-1.00
2018-02-23T03:18:57.651Z,-0.90
2018-02-23T03:21:26.005Z,-0.90
2018-02-23T03:23:53.602Z,-1.00
2018-02-23T03:26:21.190Z,-1.00
2018-02-23T03:28:48.794Z,-1.00
2018-02-23T03:31:16.384Z,-1.00
2018-02-23T03:33:44.759Z,-0.90
2018-02-23T03:36:12.342Z,-1.00
2018-02-23T03:38:39.940Z,-0.90
2018-02-23T03:41:07.517Z,-1.00
2018-02-23T03:43:35.122Z,-0.90
2018-02-23T03:46:02.718Z,-0.90
2018-02-23T03:48:30.278Z,-0.90
2018-02-23T03:50:57.871Z,-1.00
2018-02-23T03:53:25.476Z,-0.90
2018-02-23T03:55:53.102Z,-0.90
2018-02-23T03:58:21.450Z,-1.00
2018-02-23T04:00:49.035Z,-1.00
2018-02-23T04:03:17.393Z,-1.00
2018-02-23T04:05:44.958Z,-1.00
2018-02-23T04:08:12.526Z,-1.00
2018-02-23T04:10:40.109Z,-1.00
2018-02-23T04:13:08.462Z,-1.10
2018-02-23T04:15:36.866Z,-1.10
2018-02-23T04:18:05.243Z,-1.10
2018-02-23T04:20:32.830Z,-1.10
2018-02-23T04:23:00.411Z,-1.10
2018-02-23T04:25:28.014Z,-1.10
2018-02-23T04:27:55.615Z,-1.20
2018-02-23T04:30:23.200Z,-1.20
2018-02-23T04:32:51.778Z,-1.20
2018-02-23T04:35:19.379Z,-1.20
2018-02-23T04:37:46.950Z,-1.20
2018-02-23T04:40:16.078Z,-1.20
2018-02-23T04:42:43.685Z,-1.20
2018-02-23T04:45:11.250Z,-1.20
2018-02-23T04:47:38.838Z,-1.20
2018-02-23T04:50:06.422Z,-1.20
2018-02-23T04:52:34.798Z,-1.30
2018-02-23T04:55:02.366Z,-1.30
2018-02-23T04:57:30.695Z,-1.20
2018-02-23T04:59:58.290Z,-1.30
2018-02-23T05:02:25.894Z,-1.30
2018-02-23T05:04:53.467Z,-1.20
2018-02-23T05:07:21.074Z,-1.30
2018-02-23T05:09:48.630Z,-1.30
2018-02-23T05:12:17.503Z,-1.30
2018-02-23T05:14:45.095Z,-1.30
2018-02-23T05:17:12.672Z,-1.20
2018-02-23T05:19:40.988Z,-1.30
2018-02-23T05:22:08.611Z,-1.20
2018-02-23T05:24:36.223Z,-1.20
2018-02-23T05:27:03.802Z,-1.20
2018-02-23T05:29:31.398Z,-1.20
2018-02-23T05:31:59.605Z,-1.20
2018-02-23T05:34:27.162Z,-1.20
2018-02-23T05:36:55.577Z,-1.30
2018-02-23T05:39:23.182Z,-1.30
2018-02-23T05:41:50.757Z,-1.30
2018-02-23T05:44:19.118Z,-1.30
2018-02-23T05:46:46.722Z,-1.30
2018-02-23T05:49:14.331Z,-1.30
2018-02-23T05:51:41.891Z,-1.30
2018-02-23T05:54:09.491Z,-1.30
2018-02-23T05:56:37.058Z,-1.40
2018-02-23T05:59:05.395Z,-1.40
2018-02-23T06:01:32.992Z,-1.40
2018-02-23T06:04:01.379Z,-1.40
2018-02-23T06:06:28.987Z,-1.40
2018-02-23T06:08:56.589Z,-1.40
2018-02-23T06:11:24.188Z,-1.40
2018-02-23T06:13:51.755Z,-1.40
2018-02-23T06:16:25.652Z,-1.40
2018-02-23T06:19:00.336Z,-1.50
2018-02-23T06:21:27.944Z,-1.50
2018-02-23T06:23:55.510Z,-1.50
2018-02-23T06:26:23.886Z,-1.50
2018-02-23T06:28:51.450Z,-1.50
2018-02-23T06:31:19.830Z,-1.50
2018-02-23T06:33:47.404Z,-1.50
2018-02-23T06:36:15.758Z,-1.50
2018-02-23T06:38:43.331Z,-1.50
2018-02-23T06:41:11.694Z,-1.50
2018-02-23T06:43:39.302Z,-1.60
2018-02-23T06:46:06.909Z,-1.50
2018-02-23T06:48:34.477Z,-1.50
2018-02-23T06:51:02.045Z,-1.50
2018-02-23T06:53:29.638Z,-1.60
2018-02-23T06:55:57.206Z,-1.60
2018-02-23T06:58:24.798Z,-1.60
2018-02-23T07:00:52.382Z,-1.60
2018-02-23T07:03:20.003Z,-1.60
2018-02-23T07:05:47.612Z,-1.60
2018-02-23T07:08:15.178Z,-1.60
2018-02-23T07:10:42.749Z,-1.60
2018-02-23T07:13:10.396Z,-1.60
2018-02-23T07:15:38.008Z,-1.60
2018-02-23T07:18:05.611Z,-1.60
2018-02-23T07:20:33.236Z,-1.60
2018-02-23T07:23:00.821Z,-1.50
2018-02-23T07:25:28.422Z,-1.50
2018-02-23T07:27:57.603Z,-1.50
2018-02-23T07:30:25.908Z,-1.50
2018-02-23T07:32:54.375Z,-1.40
2018-02-23T07:35:22.126Z,-1.40
2018-02-23T07:37:49.813Z,-1.40
2018-02-23T07:40:18.217Z,-1.30
2018-02-23T07:42:46.614Z,-1.20
2018-02-23T07:45:15.129Z,-1.30
2018-02-23T07:47:43.498Z,-1.30
2018-02-23T07:50:11.300Z,-1.30
2018-02-23T07:52:39.013Z,-1.20
2018-02-23T07:55:07.439Z,-1.20
2018-02-23T07:57:35.072Z,-1.20
2018-02-23T08:00:02.926Z,-1.20
2018-02-23T08:02:31.431Z,-1.00
2018-02-23T08:04:59.109Z,-1.10
2018-02-23T08:07:26.708Z,-1.00
2018-02-23T08:09:54.327Z,-0.90
2018-02-23T08:12:22.598Z,-0.90
2018-02-23T08:14:50.234Z,-0.90
2018-02-23T08:17:17.798Z,-0.90
2018-02-23T08:19:47.547Z,-0.80
2018-02-23T08:22:15.639Z,-0.80
2018-02-23T08:24:43.222Z,-0.70
2018-02-23T08:27:11.275Z,-0.70
2018-02-23T08:29:38.937Z,-0.60
2018-02-23T08:32:06.554Z,-0.60
2018-02-23T08:34:35.104Z,-0.50
2018-02-23T08:37:02.875Z,-0.40
2018-02-23T08:39:30.458Z,-0.30
2018-02-23T08:41:59.239Z,-0.20
2018-02-23T08:44:26.909Z,-0.20
2018-02-23T08:46:54.523Z,-0.20
2018-02-23T08:49:22.131Z,-0.20
2018-02-23T08:51:49.809Z,-0.10
2018-02-23T08:54:18.549Z,0.20
2018-02-23T08:56:46.331Z,0.20
2018-02-23T08:59:13.955Z,0.30
2018-02-23T09:01:41.677Z,0.40
2018-02-23T09:04:10.693Z,0.50
2018-02-23T09:06:38.279Z,0.50
2018-02-23T09:09:05.992Z,0.70
2018-02-23T09:11:33.627Z,0.70
2018-02-23T09:14:01.270Z,0.80
2018-02-23T09:16:29.735Z,0.80
2018-02-23T09:18:59.070Z,1.00
2018-02-23T09:21:26.948Z,1.00
2018-02-23T09:23:54.577Z,1.10
2018-02-23T09:26:23.000Z,1.30
2018-02-23T09:28:50.653Z,1.30
2018-02-23T09:31:18.219Z,2.20
2018-02-23T09:33:57.711Z,1.50
2018-02-23T09:36:25.347Z,1.70
2018-02-23T09:38:53.111Z,1.80
2018-02-23T09:41:20.742Z,1.90
2018-02-23T09:43:48.325Z,2.00
2018-02-23T09:46:15.946Z,2.10
2018-02-23T09:48:43.661Z,2.90
2018-02-23T09:51:12.934Z,2.20
2018-02-23T09:53:40.490Z,2.40
2018-02-23T09:56:09.747Z,2.50
2018-02-23T09:58:37.347Z,2.50
2018-02-23T10:01:04.953Z,2.60
2018-02-23T10:03:32.539Z,2.70
2018-02-23T10:06:00.266Z,2.70
2018-02-23T10:08:27.922Z,2.60
2018-02-23T10:10:56.311Z,2.70
2018-02-23T10:13:23.986Z,2.70
2018-02-23T10:15:52.241Z,2.80
2018-02-23T10:18:20.010Z,2.90
2018-02-23T10:20:47.756Z,3.10
2018-02-23T10:23:15.388Z,3.30
2018-02-23T10:25:42.995Z,3.30
2018-02-23T10:28:10.579Z,3.60
2018-02-23T10:30:38.378Z,3.60
2018-02-23T10:33:05.993Z,3.50
2018-02-23T10:35:34.365Z,3.70
2018-02-23T10:38:02.038Z,3.60
2018-02-23T10:40:29.636Z,3.80
2018-02-23T10:42:57.280Z,3.90
2018-02-23T10:45:25.036Z,3.90
2018-02-23T10:47:53.296Z,3.90
2018-02-23T10:50:21.645Z,4.00
2018-02-23T10:52:49.212Z,4.10
2018-02-23T10:55:17.003Z,4.10
2018-02-23T10:57:46.307Z,4.10
2018-02-23T11:00:14.713Z,4.20
2018-02-23T11:02:42.644Z,4.20
2018-02-23T11:05:10.233Z,4.30
2018-02-23T11:07:37.842Z,4.40
2018-02-23T11:10:05.406Z,4.40
2018-02-23T11:12:33.006Z,4.50
2018-02-23T11:15:00.623Z,4.50
2018-02-23T11:17:28.248Z,4.60
2018-02-23T11:19:55.881Z,4.60
2018-02-23T11:22:23.509Z,4.60
2018-02-23T11:24:51.135Z,4.70
2018-02-23T11:27:18.731Z,4.70
2018-02-23T11:29:47.209Z,4.80
2018-02-23T11:32:14.782Z,4.80
2018-02-23T11:34:42.386Z,4.70
2018-02-23T11:37:09.986Z,4.80
2018-02-23T11:39:38.347Z,4.70
2018-02-23T11:42:06.699Z,4.70
2018-02-23T11:44:34.306Z,4.60
2018-02-23T11:47:01.918Z,4.60
2018-02-23T11:49:29.511Z,4.60
2018-02-23T11:51:57.854Z,4.80
2018-02-23T11:54:25.623Z,4.80
2018-02-23T11:56:53.351Z,5.10
2018-02-23T11:59:20.932Z,5.40
2018-02-23T12:01:48.565Z,5.50
2018-02-23T12:04:16.158Z,5.70
2018-02-23T12:06:43.758Z,5.80
2018-02-23T12:09:11.329Z,6.00
2018-02-23T12:11:38.934Z,6.20
2018-02-23T12:14:06.567Z,6.40
2018-02-23T12:16:34.167Z,6.60
2018-02-23T12:19:01.783Z,6.60
2018-02-23T12:21:29.485Z,6.60
2018-02-23T12:23:57.042Z,6.40
2018-02-23T12:26:24.952Z,6.20
2018-02-23T12:28:52.572Z,6.00
2018-02-23T12:31:20.397Z,5.80
2018-02-23T12:33:48.047Z,5.70
2018-02-23T12:36:15.656Z,5.60
2018-02-23T12:38:44.009Z,5.70
2018-02-23T12:41:11.659Z,5.70
2018-02-23T12:43:39.422Z,5.60
2018-02-23T12:46:07.038Z,5.60
2018-02-23T12:48:35.396Z,5.80
2018-02-23T12:51:03.029Z,5.80
2018-02-23T12:53:30.638Z,5.90
2018-02-23T12:55:58.249Z,5.90
2018-02-23T12:58:25.850Z,6.00
2018-02-23T13:00:53.449Z,6.00
2018-02-23T13:03:21.662Z,6.10
2018-02-23T13:05:49.341Z,6.30
2018-02-23T13:08:17.105Z,6.50
2018-02-23T13:10:44.724Z,6.50
2018-02-23T13:13:12.395Z,6.30
2018-02-23T13:15:41.385Z,6.20
2018-02-23T13:18:09.733Z,6.40
2018-02-23T13:20:39.183Z,6.40
2018-02-23T13:23:06.838Z,6.40
2018-02-23T13:25:36.224Z,7.00
2018-02-23T13:28:10.440Z,7.40
2018-02-23T13:30:38.281Z,7.30
2018-02-23T13:33:06.021Z,7.50
2018-02-23T13:35:34.467Z,7.70
2018-02-23T13:38:02.400Z,7.70
2018-02-23T13:40:31.298Z,7.40
2018-02-23T13:42:59.102Z,7.40
2018-02-23T13:45:26.777Z,7.60
2018-02-23T13:47:56.725Z,7.80
2018-02-23T13:50:24.370Z,7.90
2018-02-23T13:52:51.981Z,7.60
2018-02-23T13:55:19.939Z,7.40
2018-02-23T13:57:48.863Z,7.40
2018-02-23T14:00:16.838Z,7.50
2018-02-23T14:02:44.842Z,7.20
2018-02-23T14:05:12.686Z,6.90
2018-02-23T14:07:44.161Z,7.00
2018-02-23T14:10:12.092Z,7.00
2018-02-23T14:12:40.162Z,6.90
2018-02-23T14:15:09.547Z,6.90
2018-02-23T14:17:51.234Z,7.00
2018-02-23T14:20:18.834Z,7.20
2018-02-23T14:22:47.198Z,7.60
2018-02-23T14:25:14.786Z,7.70
2018-02-23T14:27:42.368Z,7.70
2018-02-23T14:30:10.698Z,9.60
2018-02-23T14:32:38.353Z,9.60
2018-02-23T14:35:05.971Z,10.70
2018-02-23T14:37:34.438Z,10.30
2018-02-23T14:40:02.246Z,10.30
2018-02-23T14:42:30.540Z,9.70
2018-02-23T14:44:59.291Z,10.10
2018-02-23T14:47:27.716Z,11.00
2018-02-23T14:50:08.153Z,11.00
2018-02-23T14:52:35.767Z,11.40
2018-02-23T14:55:04.201Z,10.50
2018-02-23T14:57:31.806Z,10.40
2018-02-23T14:59:59.458Z,10.00
2018-02-23T15:02:27.032Z,9.50
2018-02-23T15:04:54.639Z,10.00
2018-02-23T15:07:22.250Z,11.00
2018-02-23T15:09:50.714Z,12.10
2018-02-23T15:12:18.340Z,12.60
2018-02-23T15:14:45.928Z,13.80
2018-02-23T15:17:14.279Z,15.10
2018-02-23T15:19:42.358Z,15.10
2018-02-23T15:22:09.972Z,15.80
2018-02-23T15:24:37.574Z,16.20
2018-02-23T15:27:05.151Z,15.50
2018-02-23T15:29:33.513Z,14.70
2018-02-23T15:32:12.824Z,14.70
2018-02-23T15:34:40.471Z,13.50
2018-02-23T15:37:08.084Z,12.10
2018-02-23T15:39:35.767Z,12.10
2018-02-23T15:42:03.382Z,12.60
2018-02-23T15:44:30.965Z,13.50
2018-02-23T15:46:59.357Z,12.80
2018-02-23T15:49:41.802Z,12.70
2018-02-23T15:52:14.070Z,12.70
2018-02-23T15:54:42.459Z,13.90
2018-02-23T15:57:12.662Z,13.90
2018-02-23T15:59:41.046Z,14.00
2018-02-23T16:02:09.393Z,13.50
2018-02-23T16:04:37.011Z,13.50
2018-02-23T16:07:04.946Z,13.10
2018-02-23T16:09:32.542Z,12.60
2018-02-23T16:12:00.132Z,11.50
2018-02-23T16:14:27.751Z,10.90
2018-02-23T16:16:56.142Z,10.20
2018-02-23T16:19:23.853Z,10.20
2018-02-23T16:21:52.288Z,10.00
2018-02-23T16:24:20.532Z,10.20
2018-02-23T16:26:48.849Z,10.20
2018-02-23T16:29:17.159Z,10.20
2018-02-23T16:31:44.718Z,10.10
2018-02-23T16:34:12.286Z,10.40
2018-02-23T16:36:39.871Z,10.20
2018-02-23T16:39:07.489Z,10.10
2018-02-23T16:41:35.451Z,9.90
2018-02-23T16:44:03.019Z,9.90
2018-02-23T16:46:30.580Z,10.00
2018-02-23T16:48:58.202Z,9.50
2018-02-23T16:51:26.441Z,9.20
2018-02-23T16:53:54.007Z,8.80
2018-02-23T16:56:21.612Z,8.60
2018-02-23T16:58:50.007Z,8.10
2018-02-23T17:01:17.602Z,8.10
2018-02-23T17:03:45.314Z,8.00
2018-02-23T17:06:12.918Z,8.10
2018-02-23T17:08:40.509Z,8.10
2018-02-23T17:11:08.137Z,8.00
2018-02-23T17:13:35.727Z,7.50
2018-02-23T17:16:03.377Z,7.10
2018-02-23T17:18:30.987Z,6.70
2018-02-23T17:20:58.577Z,6.20
2018-02-23T17:23:26.955Z,5.30
2018-02-23T17:25:54.557Z,5.30
2018-02-23T17:28:22.153Z,5.00
2018-02-23T17:30:49.751Z,4.70
2018-02-23T17:33:18.138Z,4.40
2018-02-23T17:35:45.721Z,4.30
2018-02-23T17:38:13.314Z,4.30
2018-02-23T17:40:41.858Z,4.10
2018-02-23T17:43:10.235Z,3.90
2018-02-23T17:45:37.834Z,3.90
2018-02-23T17:48:06.250Z,3.90
2018-02-23T17:50:33.862Z,3.80
2018-02-23T17:53:01.414Z,3.70
2018-02-23T17:55:29.753Z,3.50
2018-02-23T17:57:57.364Z,3.50
2018-02-23T18:00:24.978Z,3.40
2018-02-23T18:02:52.562Z,3.40
2018-02-23T18:05:23.367Z,3.30
2018-02-23T18:07:50.934Z,3.20
2018-02-23T18:10:20.239Z,3.20
2018-02-23T18:12:47.872Z,3.10
2018-02-23T18:15:15.451Z,3.10
2018-02-23T18:17:43.015Z,3.00
2018-02-23T18:20:10.611Z,3.00
2018-02-23T18:22:38.232Z,3.00
2018-02-23T18:25:05.827Z,2.90
2018-02-23T18:27:33.422Z,2.90
2018-02-23T18:30:01.841Z,2.90
2018-02-23T18:32:29.677Z,2.80
2018-02-23T18:34:57.291Z,2.80
2018-02-23T18:37:24.866Z,2.90
2018-02-23T18:39:52.455Z,2.80
2018-02-23T18:42:20.350Z,2.80
2018-02-23T18:44:48.562Z,2.70
2018-02-23T18:47:16.155Z,2.70
2018-02-23T18:49:43.714Z,2.70
2018-02-23T18:52:11.354Z,2.60
2018-02-23T18:54:39.554Z,2.50
2018-02-23T18:57:07.160Z,2.50
2018-02-23T18:59:34.758Z,2.40
2018-02-23T19:02:02.322Z,2.40
2018-02-23T19:04:30.028Z,2.40
2018-02-23T19:06:57.662Z,2.40
2018-02-23T19:09:25.320Z,2.30
2018-02-23T19:11:52.886Z,2.30
2018-02-23T19:14:20.514Z,2.20
2018-02-23T19:16:48.119Z,2.20
2018-02-23T19:19:17.049Z,2.20
2018-02-23T19:21:44.615Z,2.20
2018-02-23T19:24:12.199Z,2.20
2018-02-23T19:26:39.774Z,2.10
2018-02-23T19:29:07.673Z,2.10
2018-02-23T19:31:35.271Z,2.00
2018-02-23T19:34:02.917Z,2.10
2018-02-23T19:36:30.450Z,2.00
2018-02-23T19:38:58.055Z,2.00
2018-02-23T19:41:25.630Z,1.90
2018-02-23T19:43:53.222Z,1.90
2018-02-23T19:46:20.782Z,1.90
2018-02-23T19:48:48.373Z,1.90
2018-02-23T19:51:17.530Z,1.90
2018-02-23T19:53:45.093Z,1.80
2018-02-23T19:56:12.655Z,1.80
2018-02-23T19:58:40.247Z,1.70
2018-02-23T20:01:08.470Z,1.80
2018-02-23T20:03:36.867Z,1.70
2018-02-23T20:06:04.427Z,1.70
2018-02-23T20:08:32.022Z,1.70
2018-02-23T20:10:59.633Z,1.60
2018-02-23T20:13:27.231Z,1.60
2018-02-23T20:15:54.834Z,1.60
2018-02-23T20:18:22.448Z,1.60
2018-02-23T20:20:50.010Z,1.50
2018-02-23T20:23:17.779Z,1.50
2018-02-23T20:25:45.423Z,1.40
2018-02-23T20:28:13.011Z,1.40
2018-02-23T20:30:40.604Z,1.30
2018-02-23T20:33:08.178Z,1.30
2018-02-23T20:35:35.779Z,1.30
2018-02-23T20:38:04.134Z,1.20
2018-02-23T20:40:31.759Z,1.20
2018-02-23T20:42:59.351Z,1.20
2018-02-23T20:45:26.918Z,1.20
2018-02-23T20:47:54.511Z,1.20
2018-02-23T20:50:22.838Z,1.10
2018-02-23T20:52:50.415Z,1.10
2018-02-23T20:55:18.052Z,1.10
2018-02-23T20:57:45.648Z,1.10
2018-02-23T21:00:13.265Z,1.10
2018-02-23T21:02:40.882Z,1.10
2018-02-23T21:05:08.476Z,1.10
2018-02-23T21:07:36.038Z,1.10
2018-02-23T21:10:03.654Z,1.10
2018-02-23T21:12:31.225Z,1.10
2018-02-23T21:14:58.825Z,1.10
2018-02-23T21:17:27.217Z,1.10
2018-02-23T21:19:54.844Z,1.00
2018-02-23T21:22:22.467Z,1.00
2018-02-23T21:24:50.051Z,1.00
2018-02-23T21:27:17.694Z,0.90
2018-02-23T21:29:45.262Z,0.90
2018-02-23T21:32:12.859Z,0.90
2018-02-23T21:34:40.486Z,0.90
2018-02-23T21:37:08.082Z,0.90
2018-02-23T21:39:35.681Z,0.90
2018-02-23T21:42:04.098Z,0.90
2018-02-23T21:44:43.456Z,0.80
2018-02-23T21:47:11.120Z,0.80
2018-02-23T21:49:38.646Z,0.80
2018-02-23T21:52:06.259Z,0.80
2018-02-23T21:54:33.909Z,0.80
2018-02-23T21:57:01.503Z,0.80
2018-02-23T21:59:30.867Z,0.90
2018-02-23T22:01:58.613Z,0.90
2018-02-23T22:04:26.523Z,1.00
2018-02-23T22:06:54.124Z,1.00
2018-02-23T22:09:21.747Z,1.00
2018-02-23T22:11:49.383Z,0.90
2018-02-23T22:14:16.987Z,1.00
2018-02-23T22:16:44.606Z,1.00
2018-02-23T22:19:12.234Z,1.00
2018-02-23T22:21:39.860Z,1.00
2018-02-23T22:24:07.595Z,1.00
2018-02-23T22:26:35.194Z,1.00
2018-02-23T22:29:02.839Z,1.10
2018-02-23T22:31:30.475Z,1.10
2018-02-23T22:33:58.078Z,1.10
2018-02-23T22:36:25.720Z,1.20
2018-02-23T22:38:53.362Z,1.20
2018-02-23T22:41:21.187Z,1.20
2018-02-23T22:43:48.789Z,1.20
2018-02-23T22:46:16.366Z,1.20
2018-02-23T22:48:43.967Z,1.10
2018-02-23T22:51:13.100Z,1.20
2018-02-23T22:53:40.703Z,1.20
2018-02-23T22:56:08.316Z,1.20
2018-02-23T22:58:36.691Z,1.20
2018-02-23T23:01:04.268Z,1.20
2018-02-23T23:03:32.611Z,1.20
2018-02-23T23:06:00.218Z,1.20
2018-02-23T23:08:28.569Z,1.20
2018-02-23T23:10:56.137Z,1.20
2018-02-23T23:13:23.726Z,1.20
2018-02-23T23:15:51.316Z,1.20
2018-02-23T23:18:18.923Z,1.20
2018-02-23T23:20:46.495Z,1.10
2018-02-23T23:23:14.098Z,1.10
2018-02-23T23:25:41.706Z,1.00
2018-02-23T23:28:09.260Z,1.00
2018-02-23T23:30:36.847Z,0.90
2018-02-23T23:33:06.519Z,0.80
2018-02-23T23:35:34.096Z,0.80
2018-02-23T23:38:01.691Z,0.80
2018-02-23T23:40:30.060Z,0.70
2018-02-23T23:42:59.158Z,0.70
2018-02-23T23:45:26.775Z,0.70
2018-02-23T23:47:54.594Z,0.70
2018-02-23T23:50:23.052Z,0.60
2018-02-23T23:52:50.649Z,0.60
2018-02-23T23:55:18.248Z,0.50
2018-02-23T23:57:45.806Z,0.50
